sensor_id;sensor_type;location;lat;lon;timestamp;P1;durP1;ratioP1;P2;durP2;ratioP2
49366;SDS011;35245;52.026;8.540;2023-11-22T00:01:10;11.38;;;6.72;;
49366;SDS011;35245;52.026;8.540;2023-11-22T00:03:37;10.68;;;6.40;;
49366;SDS011;35245;52.026;8.540;2023-11-22T00:06:06;10.48;;;6.35;;
49366;SDS011;35245;52.026;8.540;2023-11-22T00:08:33;11.05;;;6.78;;
49366;SDS011;35245;52.026;8.540;2023-11-22T00:11:00;12.25;;;6.07;;
49366;SDS011;35245;52.026;8.540;2023-11-22T00:13:28;8.75;;;5.68;;
49366;SDS011;35245;52.026;8.540;2023-11-22T00:15:57;9.77;;;6.68;;
49366;SDS011;35245;52.026;8.540;2023-11-22T00:18:24;9.93;;;6.70;;
49366;SDS011;35245;52.026;8.540;2023-11-22T00:20:51;11.30;;;6.30;;
49366;SDS011;35245;52.026;8.540;2023-11-22T00:23:21;11.60;;;6.40;;
49366;SDS011;35245;52.026;8.540;2023-11-22T00:25:52;12.23;;;6.57;;
49366;SDS011;35245;52.026;8.540;2023-11-22T00:28:19;11.00;;;6.45;;
49366;SDS011;35245;52.026;8.540;2023-11-22T00:30:46;12.07;;;6.22;;
49366;SDS011;35245;52.026;8.540;2023-11-22T00:33:13;12.35;;;6.10;;
49366;SDS011;35245;52.026;8.540;2023-11-22T00:35:40;11.07;;;6.50;;
49366;SDS011;35245;52.026;8.540;2023-11-22T00:38:07;11.00;;;7.00;;
49366;SDS011;35245;52.026;8.540;2023-11-22T00:40:35;9.65;;;6.35;;
49366;SDS011;35245;52.026;8.540;2023-11-22T00:43:02;11.25;;;6.70;;
49366;SDS011;35245;52.026;8.540;2023-11-22T00:45:29;11.32;;;6.35;;
49366;SDS011;35245;52.026;8.540;2023-11-22T00:47:55;8.65;;;5.90;;
49366;SDS011;35245;52.026;8.540;2023-11-22T00:50:22;9.93;;;6.40;;
49366;SDS011;35245;52.026;8.540;2023-11-22T00:52:49;9.90;;;5.93;;
49366;SDS011;35245;52.026;8.540;2023-11-22T00:55:16;11.73;;;6.05;;
49366;SDS011;35245;52.026;8.540;2023-11-22T00:57:44;13.35;;;6.30;;
49366;SDS011;35245;52.026;8.540;2023-11-22T01:00:11;10.48;;;4.90;;
49366;SDS011;35245;52.026;8.540;2023-11-22T01:02:40;14.20;;;6.05;;
49366;SDS011;35245;52.026;8.540;2023-11-22T01:05:07;7.72;;;5.28;;
49366;SDS011;35245;52.026;8.540;2023-11-22T01:07:36;7.80;;;4.97;;
49366;SDS011;35245;52.026;8.540;2023-11-22T01:10:03;11.05;;;5.50;;
49366;SDS011;35245;52.026;8.540;2023-11-22T01:12:31;8.00;;;5.38;;
49366;SDS011;35245;52.026;8.540;2023-11-22T01:14:59;8.65;;;5.78;;
49366;SDS011;35245;52.026;8.540;2023-11-22T01:17:26;8.27;;;5.28;;
49366;SDS011;35245;52.026;8.540;2023-11-22T01:19:53;7.35;;;4.80;;
49366;SDS011;35245;52.026;8.540;2023-11-22T01:22:20;9.02;;;5.80;;
49366;SDS011;35245;52.026;8.540;2023-11-22T01:24:47;9.93;;;6.38;;
49366;SDS011;35245;52.026;8.540;2023-11-22T01:27:13;8.32;;;5.22;;
49366;SDS011;35245;52.026;8.540;2023-11-22T01:29:40;10.65;;;5.68;;
49366;SDS011;35245;52.026;8.540;2023-11-22T01:32:09;9.38;;;5.28;;
49366;SDS011;35245;52.026;8.540;2023-11-22T01:34:36;10.18;;;6.03;;
49366;SDS011;35245;52.026;8.540;2023-11-22T01:37:03;8.55;;;5.70;;
49366;SDS011;35245;52.026;8.540;2023-11-22T01:39:30;9.73;;;5.78;;
49366;SDS011;35245;52.026;8.540;2023-11-22T01:41:57;11.15;;;5.72;;
49366;SDS011;35245;52.026;8.540;2023-11-22T01:44:24;8.55;;;5.63;;
49366;SDS011;35245;52.026;8.540;2023-11-22T01:46:51;8.75;;;5.43;;
49366;SDS011;35245;52.026;8.540;2023-11-22T01:49:20;9.93;;;5.75;;
49366;SDS011;35245;52.026;8.540;2023-11-22T01:51:48;10.73;;;5.80;;
49366;SDS011;35245;52.026;8.540;2023-11-22T01:54:15;9.40;;;5.97;;
49366;SDS011;35245;52.026;8.540;2023-11-22T01:56:45;9.48;;;6.10;;
49366;SDS011;35245;52.026;8.540;2023-11-22T01:59:12;10.07;;;5.80;;
49366;SDS011;35245;52.026;8.540;2023-11-22T02:01:39;10.75;;;5.95;;
49366;SDS011;35245;52.026;8.540;2023-11-22T02:04:06;10.90;;;5.60;;
49366;SDS011;35245;52.026;8.540;2023-11-22T02:06:36;9.27;;;5.65;;
49366;SDS011;35245;52.026;8.540;2023-11-22T02:09:02;9.60;;;5.63;;
49366;SDS011;35245;52.026;8.540;2023-11-22T02:11:29;8.88;;;5.75;;
49366;SDS011;35245;52.026;8.540;2023-11-22T02:13:56;9.50;;;5.40;;
49366;SDS011;35245;52.026;8.540;2023-11-22T02:16:23;7.20;;;5.15;;
49366;SDS011;35245;52.026;8.540;2023-11-22T02:18:50;13.98;;;6.35;;
49366;SDS011;35245;52.026;8.540;2023-11-22T02:21:17;9.77;;;5.68;;
49366;SDS011;35245;52.026;8.540;2023-11-22T02:23:45;9.80;;;5.70;;
49366;SDS011;35245;52.026;8.540;2023-11-22T02:26:12;7.95;;;5.43;;
49366;SDS011;35245;52.026;8.540;2023-11-22T02:28:40;8.18;;;5.18;;
49366;SDS011;35245;52.026;8.540;2023-11-22T02:31:07;10.75;;;5.70;;
49366;SDS011;35245;52.026;8.540;2023-11-22T02:33:34;7.75;;;4.95;;
49366;SDS011;35245;52.026;8.540;2023-11-22T02:36:01;8.05;;;5.35;;
49366;SDS011;35245;52.026;8.540;2023-11-22T02:38:28;9.10;;;5.72;;
49366;SDS011;35245;52.026;8.540;2023-11-22T02:40:57;11.77;;;5.68;;
49366;SDS011;35245;52.026;8.540;2023-11-22T02:43:24;9.60;;;6.45;;
49366;SDS011;35245;52.026;8.540;2023-11-22T02:45:50;9.93;;;5.93;;
49366;SDS011;35245;52.026;8.540;2023-11-22T02:48:18;12.48;;;6.50;;
49366;SDS011;35245;52.026;8.540;2023-11-22T02:50:45;11.60;;;6.80;;
49366;SDS011;35245;52.026;8.540;2023-11-22T02:53:12;14.25;;;6.28;;
49366;SDS011;35245;52.026;8.540;2023-11-22T02:55:39;12.68;;;6.35;;
49366;SDS011;35245;52.026;8.540;2023-11-22T02:58:07;11.77;;;6.85;;
49366;SDS011;35245;52.026;8.540;2023-11-22T03:00:34;10.93;;;6.28;;
49366;SDS011;35245;52.026;8.540;2023-11-22T03:03:01;9.25;;;5.88;;
49366;SDS011;35245;52.026;8.540;2023-11-22T03:05:29;11.52;;;6.07;;
49366;SDS011;35245;52.026;8.540;2023-11-22T03:07:56;10.43;;;6.85;;
49366;SDS011;35245;52.026;8.540;2023-11-22T03:10:23;12.00;;;6.50;;
49366;SDS011;35245;52.026;8.540;2023-11-22T03:12:50;9.13;;;5.90;;
49366;SDS011;35245;52.026;8.540;2023-11-22T03:15:18;11.20;;;6.75;;
49366;SDS011;35245;52.026;8.540;2023-11-22T03:17:45;9.90;;;6.22;;
49366;SDS011;35245;52.026;8.540;2023-11-22T03:20:13;9.38;;;5.97;;
49366;SDS011;35245;52.026;8.540;2023-11-22T03:22:41;9.68;;;5.78;;
49366;SDS011;35245;52.026;8.540;2023-11-22T03:25:09;11.55;;;6.07;;
49366;SDS011;35245;52.026;8.540;2023-11-22T03:27:37;10.35;;;5.32;;
49366;SDS011;35245;52.026;8.540;2023-11-22T03:30:04;9.82;;;5.80;;
49366;SDS011;35245;52.026;8.540;2023-11-22T03:32:37;9.13;;;5.70;;
49366;SDS011;35245;52.026;8.540;2023-11-22T03:35:05;10.38;;;5.50;;
49366;SDS011;35245;52.026;8.540;2023-11-22T03:37:32;9.25;;;5.57;;
49366;SDS011;35245;52.026;8.540;2023-11-22T03:39:59;10.88;;;6.35;;
49366;SDS011;35245;52.026;8.540;2023-11-22T03:42:25;10.25;;;6.13;;
49366;SDS011;35245;52.026;8.540;2023-11-22T03:44:53;14.02;;;6.15;;
49366;SDS011;35245;52.026;8.540;2023-11-22T03:47:19;12.57;;;6.38;;
49366;SDS011;35245;52.026;8.540;2023-11-22T03:49:48;10.60;;;6.18;;
49366;SDS011;35245;52.026;8.540;2023-11-22T03:52:15;11.25;;;5.85;;
49366;SDS011;35245;52.026;8.540;2023-11-22T03:54:42;13.88;;;6.63;;
49366;SDS011;35245;52.026;8.540;2023-11-22T03:57:09;11.52;;;6.32;;
49366;SDS011;35245;52.026;8.540;2023-11-22T03:59:35;9.23;;;5.53;;
49366;SDS011;35245;52.026;8.540;2023-11-22T04:02:03;10.85;;;6.00;;
49366;SDS011;35245;52.026;8.540;2023-11-22T04:04:30;11.70;;;6.50;;
49366;SDS011;35245;52.026;8.540;2023-11-22T04:06:58;10.43;;;6.47;;
49366;SDS011;35245;52.026;8.540;2023-11-22T04:09:25;13.07;;;6.82;;
49366;SDS011;35245;52.026;8.540;2023-11-22T04:11:52;11.20;;;6.80;;
49366;SDS011;35245;52.026;8.540;2023-11-22T04:14:19;10.70;;;6.78;;
49366;SDS011;35245;52.026;8.540;2023-11-22T04:16:46;15.25;;;6.15;;
49366;SDS011;35245;52.026;8.540;2023-11-22T04:19:13;12.70;;;6.88;;
49366;SDS011;35245;52.026;8.540;2023-11-22T04:21:40;10.73;;;5.97;;
49366;SDS011;35245;52.026;8.540;2023-11-22T04:24:10;9.80;;;6.25;;
49366;SDS011;35245;52.026;8.540;2023-11-22T04:26:37;11.85;;;6.68;;
49366;SDS011;35245;52.026;8.540;2023-11-22T04:29:04;11.05;;;6.60;;
49366;SDS011;35245;52.026;8.540;2023-11-22T04:31:31;10.40;;;6.45;;
49366;SDS011;35245;52.026;8.540;2023-11-22T04:33:58;10.43;;;6.38;;
49366;SDS011;35245;52.026;8.540;2023-11-22T04:36:25;11.00;;;6.45;;
49366;SDS011;35245;52.026;8.540;2023-11-22T04:38:52;14.43;;;7.13;;
49366;SDS011;35245;52.026;8.540;2023-11-22T04:41:20;12.10;;;6.72;;
49366;SDS011;35245;52.026;8.540;2023-11-22T04:43:47;12.65;;;6.97;;
49366;SDS011;35245;52.026;8.540;2023-11-22T04:46:14;11.90;;;5.90;;
49366;SDS011;35245;52.026;8.540;2023-11-22T04:48:41;16.27;;;7.38;;
49366;SDS011;35245;52.026;8.540;2023-11-22T04:51:10;10.93;;;7.15;;
49366;SDS011;35245;52.026;8.540;2023-11-22T04:53:37;14.27;;;6.63;;
49366;SDS011;35245;52.026;8.540;2023-11-22T04:56:04;11.02;;;6.80;;
49366;SDS011;35245;52.026;8.540;2023-11-22T04:58:33;10.82;;;6.32;;
49366;SDS011;35245;52.026;8.540;2023-11-22T05:01:00;11.18;;;6.40;;
49366;SDS011;35245;52.026;8.540;2023-11-22T05:03:27;9.52;;;6.22;;
49366;SDS011;35245;52.026;8.540;2023-11-22T05:05:54;11.68;;;6.72;;
49366;SDS011;35245;52.026;8.540;2023-11-22T05:08:21;10.98;;;6.30;;
49366;SDS011;35245;52.026;8.540;2023-11-22T05:10:48;12.05;;;6.60;;
49366;SDS011;35245;52.026;8.540;2023-11-22T05:13:15;10.30;;;6.47;;
49366;SDS011;35245;52.026;8.540;2023-11-22T05:15:43;11.73;;;7.15;;
49366;SDS011;35245;52.026;8.540;2023-11-22T05:18:10;12.05;;;7.55;;
49366;SDS011;35245;52.026;8.540;2023-11-22T05:20:37;12.05;;;6.97;;
49366;SDS011;35245;52.026;8.540;2023-11-22T05:23:04;12.88;;;7.82;;
49366;SDS011;35245;52.026;8.540;2023-11-22T05:25:31;11.18;;;6.70;;
49366;SDS011;35245;52.026;8.540;2023-11-22T05:27:58;12.75;;;7.05;;
49366;SDS011;35245;52.026;8.540;2023-11-22T05:30:25;13.15;;;6.72;;
49366;SDS011;35245;52.026;8.540;2023-11-22T05:32:53;13.82;;;7.22;;
49366;SDS011;35245;52.026;8.540;2023-11-22T05:35:20;11.52;;;7.28;;
49366;SDS011;35245;52.026;8.540;2023-11-22T05:37:47;12.73;;;6.15;;
49366;SDS011;35245;52.026;8.540;2023-11-22T05:40:14;11.65;;;6.88;;
49366;SDS011;35245;52.026;8.540;2023-11-22T05:42:41;10.90;;;6.55;;
49366;SDS011;35245;52.026;8.540;2023-11-22T05:45:08;14.20;;;8.07;;
49366;SDS011;35245;52.026;8.540;2023-11-22T05:47:35;11.98;;;6.88;;
49366;SDS011;35245;52.026;8.540;2023-11-22T05:50:04;13.90;;;7.15;;
49366;SDS011;35245;52.026;8.540;2023-11-22T05:52:32;11.35;;;5.90;;
49366;SDS011;35245;52.026;8.540;2023-11-22T05:54:59;13.25;;;7.82;;
49366;SDS011;35245;52.026;8.540;2023-11-22T05:57:28;13.80;;;7.13;;
49366;SDS011;35245;52.026;8.540;2023-11-22T05:59:55;13.98;;;8.10;;
49366;SDS011;35245;52.026;8.540;2023-11-22T06:02:22;13.10;;;7.40;;
49366;SDS011;35245;52.026;8.540;2023-11-22T06:04:49;12.07;;;7.32;;
49366;SDS011;35245;52.026;8.540;2023-11-22T06:07:17;11.68;;;6.95;;
49366;SDS011;35245;52.026;8.540;2023-11-22T06:09:44;10.30;;;7.40;;
49366;SDS011;35245;52.026;8.540;2023-11-22T06:12:11;16.55;;;9.23;;
49366;SDS011;35245;52.026;8.540;2023-11-22T06:14:39;13.05;;;8.10;;
49366;SDS011;35245;52.026;8.540;2023-11-22T06:17:06;14.50;;;7.53;;
49366;SDS011;35245;52.026;8.540;2023-11-22T06:19:33;13.95;;;7.88;;
49366;SDS011;35245;52.026;8.540;2023-11-22T06:22:00;12.18;;;7.05;;
49366;SDS011;35245;52.026;8.540;2023-11-22T06:24:29;15.43;;;8.88;;
49366;SDS011;35245;52.026;8.540;2023-11-22T06:26:56;11.75;;;7.32;;
49366;SDS011;35245;52.026;8.540;2023-11-22T06:29:23;11.80;;;7.05;;
49366;SDS011;35245;52.026;8.540;2023-11-22T06:31:50;24.30;;;17.25;;
49366;SDS011;35245;52.026;8.540;2023-11-22T06:34:17;14.90;;;7.72;;
49366;SDS011;35245;52.026;8.540;2023-11-22T06:36:44;16.25;;;9.15;;
49366;SDS011;35245;52.026;8.540;2023-11-22T06:39:11;14.88;;;8.40;;
49366;SDS011;35245;52.026;8.540;2023-11-22T06:41:40;15.80;;;7.93;;
49366;SDS011;35245;52.026;8.540;2023-11-22T06:44:07;16.85;;;9.63;;
49366;SDS011;35245;52.026;8.540;2023-11-22T06:46:34;13.07;;;8.20;;
49366;SDS011;35245;52.026;8.540;2023-11-22T06:49:02;15.85;;;8.40;;
49366;SDS011;35245;52.026;8.540;2023-11-22T06:51:30;11.02;;;7.18;;
49366;SDS011;35245;52.026;8.540;2023-11-22T06:53:57;15.38;;;8.38;;
49366;SDS011;35245;52.026;8.540;2023-11-22T06:56:23;18.67;;;8.73;;
49366;SDS011;35245;52.026;8.540;2023-11-22T06:58:52;11.40;;;8.25;;
49366;SDS011;35245;52.026;8.540;2023-11-22T07:01:22;15.10;;;7.90;;
49366;SDS011;35245;52.026;8.540;2023-11-22T07:03:50;13.15;;;7.97;;
49366;SDS011;35245;52.026;8.540;2023-11-22T07:06:18;13.32;;;8.05;;
49366;SDS011;35245;52.026;8.540;2023-11-22T07:08:47;17.40;;;7.78;;
49366;SDS011;35245;52.026;8.540;2023-11-22T07:11:20;15.20;;;8.75;;
49366;SDS011;35245;52.026;8.540;2023-11-22T07:13:49;14.90;;;8.27;;
49366;SDS011;35245;52.026;8.540;2023-11-22T07:16:17;16.50;;;9.10;;
49366;SDS011;35245;52.026;8.540;2023-11-22T07:18:45;16.92;;;8.82;;
49366;SDS011;35245;52.026;8.540;2023-11-22T07:21:12;12.25;;;8.52;;
49366;SDS011;35245;52.026;8.540;2023-11-22T07:23:39;17.15;;;9.07;;
49366;SDS011;35245;52.026;8.540;2023-11-22T07:26:06;15.48;;;8.82;;
49366;SDS011;35245;52.026;8.540;2023-11-22T07:28:33;14.15;;;8.60;;
49366;SDS011;35245;52.026;8.540;2023-11-22T07:31:01;18.83;;;9.27;;
49366;SDS011;35245;52.026;8.540;2023-11-22T07:33:32;14.20;;;8.57;;
49366;SDS011;35245;52.026;8.540;2023-11-22T07:35:59;17.75;;;9.60;;
49366;SDS011;35245;52.026;8.540;2023-11-22T07:38:26;19.58;;;8.43;;
49366;SDS011;35245;52.026;8.540;2023-11-22T07:40:54;15.93;;;8.60;;
49366;SDS011;35245;52.026;8.540;2023-11-22T07:43:21;16.95;;;8.68;;
49366;SDS011;35245;52.026;8.540;2023-11-22T07:45:48;13.43;;;8.07;;
49366;SDS011;35245;52.026;8.540;2023-11-22T07:48:16;12.07;;;8.07;;
49366;SDS011;35245;52.026;8.540;2023-11-22T07:50:44;40.50;;;23.38;;
49366;SDS011;35245;52.026;8.540;2023-11-22T07:53:14;15.77;;;8.38;;
49366;SDS011;35245;52.026;8.540;2023-11-22T07:55:42;15.98;;;8.20;;
49366;SDS011;35245;52.026;8.540;2023-11-22T07:58:09;13.55;;;8.20;;
49366;SDS011;35245;52.026;8.540;2023-11-22T08:00:37;13.13;;;7.80;;
49366;SDS011;35245;52.026;8.540;2023-11-22T08:03:07;13.38;;;8.50;;
49366;SDS011;35245;52.026;8.540;2023-11-22T08:05:34;14.25;;;8.32;;
49366;SDS011;35245;52.026;8.540;2023-11-22T08:08:03;13.45;;;8.73;;
49366;SDS011;35245;52.026;8.540;2023-11-22T08:10:33;13.82;;;8.68;;
49366;SDS011;35245;52.026;8.540;2023-11-22T08:13:00;12.38;;;8.00;;
49366;SDS011;35245;52.026;8.540;2023-11-22T08:15:27;13.80;;;8.05;;
49366;SDS011;35245;52.026;8.540;2023-11-22T08:17:56;16.48;;;9.02;;
49366;SDS011;35245;52.026;8.540;2023-11-22T08:20:23;15.68;;;9.20;;
49366;SDS011;35245;52.026;8.540;2023-11-22T08:22:50;15.02;;;8.80;;
49366;SDS011;35245;52.026;8.540;2023-11-22T08:25:18;15.43;;;8.10;;
49366;SDS011;35245;52.026;8.540;2023-11-22T08:27:45;14.50;;;8.80;;
49366;SDS011;35245;52.026;8.540;2023-11-22T08:30:12;14.05;;;9.25;;
49366;SDS011;35245;52.026;8.540;2023-11-22T08:32:40;13.75;;;8.50;;
49366;SDS011;35245;52.026;8.540;2023-11-22T08:35:08;14.38;;;8.38;;
49366;SDS011;35245;52.026;8.540;2023-11-22T08:37:35;13.25;;;8.13;;
49366;SDS011;35245;52.026;8.540;2023-11-22T08:40:06;15.82;;;8.32;;
49366;SDS011;35245;52.026;8.540;2023-11-22T08:42:37;11.82;;;7.15;;
49366;SDS011;35245;52.026;8.540;2023-11-22T08:45:06;12.52;;;7.82;;
49366;SDS011;35245;52.026;8.540;2023-11-22T08:47:34;13.60;;;8.07;;
49366;SDS011;35245;52.026;8.540;2023-11-22T08:50:01;11.95;;;7.00;;
49366;SDS011;35245;52.026;8.540;2023-11-22T08:52:30;12.60;;;7.25;;
49366;SDS011;35245;52.026;8.540;2023-11-22T08:54:57;11.85;;;7.18;;
49366;SDS011;35245;52.026;8.540;2023-11-22T08:57:25;12.85;;;7.95;;
49366;SDS011;35245;52.026;8.540;2023-11-22T08:59:53;13.55;;;8.18;;
49366;SDS011;35245;52.026;8.540;2023-11-22T09:02:21;12.63;;;6.90;;
49366;SDS011;35245;52.026;8.540;2023-11-22T09:04:48;13.10;;;7.07;;
49366;SDS011;35245;52.026;8.540;2023-11-22T09:07:15;12.88;;;6.70;;
49366;SDS011;35245;52.026;8.540;2023-11-22T09:09:43;10.63;;;7.25;;
49366;SDS011;35245;52.026;8.540;2023-11-22T09:12:10;21.15;;;10.98;;
49366;SDS011;35245;52.026;8.540;2023-11-22T09:14:38;13.25;;;6.80;;
49366;SDS011;35245;52.026;8.540;2023-11-22T09:17:08;11.88;;;6.65;;
49366;SDS011;35245;52.026;8.540;2023-11-22T09:19:35;9.88;;;6.05;;
49366;SDS011;35245;52.026;8.540;2023-11-22T09:22:02;8.60;;;6.43;;
49366;SDS011;35245;52.026;8.540;2023-11-22T09:24:31;11.00;;;5.85;;
49366;SDS011;35245;52.026;8.540;2023-11-22T09:26:58;9.90;;;5.35;;
49366;SDS011;35245;52.026;8.540;2023-11-22T09:29:30;8.85;;;5.43;;
49366;SDS011;35245;52.026;8.540;2023-11-22T09:31:57;10.57;;;6.13;;
49366;SDS011;35245;52.026;8.540;2023-11-22T09:34:27;11.30;;;6.35;;
49366;SDS011;35245;52.026;8.540;2023-11-22T09:36:55;9.20;;;5.80;;
49366;SDS011;35245;52.026;8.540;2023-11-22T09:39:22;11.65;;;6.20;;
49366;SDS011;35245;52.026;8.540;2023-11-22T09:41:50;9.30;;;5.60;;
49366;SDS011;35245;52.026;8.540;2023-11-22T09:44:18;10.13;;;5.25;;
49366;SDS011;35245;52.026;8.540;2023-11-22T09:46:46;10.27;;;5.72;;
49366;SDS011;35245;52.026;8.540;2023-11-22T09:49:18;10.52;;;6.05;;
49366;SDS011;35245;52.026;8.540;2023-11-22T09:51:49;9.27;;;6.00;;
49366;SDS011;35245;52.026;8.540;2023-11-22T09:54:17;13.05;;;6.00;;
49366;SDS011;35245;52.026;8.540;2023-11-22T09:56:45;8.88;;;5.90;;
49366;SDS011;35245;52.026;8.540;2023-11-22T09:59:15;11.15;;;5.47;;
49366;SDS011;35245;52.026;8.540;2023-11-22T10:01:47;12.23;;;6.10;;
49366;SDS011;35245;52.026;8.540;2023-11-22T10:04:14;10.95;;;5.80;;
49366;SDS011;35245;52.026;8.540;2023-11-22T10:06:41;10.35;;;5.30;;
49366;SDS011;35245;52.026;8.540;2023-11-22T10:09:12;8.52;;;5.00;;
49366;SDS011;35245;52.026;8.540;2023-11-22T10:11:40;8.95;;;4.95;;
49366;SDS011;35245;52.026;8.540;2023-11-22T10:14:08;8.98;;;4.97;;
49366;SDS011;35245;52.026;8.540;2023-11-22T10:16:35;7.88;;;5.20;;
49366;SDS011;35245;52.026;8.540;2023-11-22T10:19:03;8.52;;;4.95;;
49366;SDS011;35245;52.026;8.540;2023-11-22T10:21:32;10.48;;;4.93;;
49366;SDS011;35245;52.026;8.540;2023-11-22T10:24:00;8.15;;;5.07;;
49366;SDS011;35245;52.026;8.540;2023-11-22T10:26:29;8.35;;;4.60;;
49366;SDS011;35245;52.026;8.540;2023-11-22T10:28:56;7.95;;;4.35;;
49366;SDS011;35245;52.026;8.540;2023-11-22T10:31:24;6.13;;;4.18;;
49366;SDS011;35245;52.026;8.540;2023-11-22T10:33:51;8.15;;;4.13;;
49366;SDS011;35245;52.026;8.540;2023-11-22T10:36:21;5.72;;;3.45;;
49366;SDS011;35245;52.026;8.540;2023-11-22T10:38:48;7.15;;;3.60;;
49366;SDS011;35245;52.026;8.540;2023-11-22T10:41:16;9.77;;;3.72;;
49366;SDS011;35245;52.026;8.540;2023-11-22T10:43:45;7.57;;;4.63;;
49366;SDS011;35245;52.026;8.540;2023-11-22T10:46:12;9.73;;;4.40;;
49366;SDS011;35245;52.026;8.540;2023-11-22T10:48:39;7.28;;;3.90;;
49366;SDS011;35245;52.026;8.540;2023-11-22T10:51:06;8.80;;;4.20;;
49366;SDS011;35245;52.026;8.540;2023-11-22T10:53:48;9.55;;;4.53;;
49366;SDS011;35245;52.026;8.540;2023-11-22T10:56:15;7.30;;;3.40;;
49366;SDS011;35245;52.026;8.540;2023-11-22T10:58:47;6.70;;;3.85;;
49366;SDS011;35245;52.026;8.540;2023-11-22T11:01:15;8.48;;;4.28;;
49366;SDS011;35245;52.026;8.540;2023-11-22T11:03:45;5.68;;;3.35;;
49366;SDS011;35245;52.026;8.540;2023-11-22T11:06:16;5.28;;;3.05;;
49366;SDS011;35245;52.026;8.540;2023-11-22T11:08:48;5.68;;;3.40;;
49366;SDS011;35245;52.026;8.540;2023-11-22T11:11:15;8.20;;;3.88;;
49366;SDS011;35245;52.026;8.540;2023-11-22T11:13:42;6.85;;;3.70;;
49366;SDS011;35245;52.026;8.540;2023-11-22T11:16:11;6.22;;;3.83;;
49366;SDS011;35245;52.026;8.540;2023-11-22T11:18:38;9.32;;;3.63;;
49366;SDS011;35245;52.026;8.540;2023-11-22T11:21:07;8.38;;;5.18;;
49366;SDS011;35245;52.026;8.540;2023-11-22T11:23:37;10.10;;;3.95;;
49366;SDS011;35245;52.026;8.540;2023-11-22T11:26:09;6.75;;;3.97;;
49366;SDS011;35245;52.026;8.540;2023-11-22T11:28:42;8.43;;;3.75;;
49366;SDS011;35245;52.026;8.540;2023-11-22T11:31:10;7.53;;;3.97;;
49366;SDS011;35245;52.026;8.540;2023-11-22T11:33:52;6.65;;;3.75;;
49366;SDS011;35245;52.026;8.540;2023-11-22T11:36:21;8.43;;;3.38;;
49366;SDS011;35245;52.026;8.540;2023-11-22T11:38:49;6.38;;;3.50;;
49366;SDS011;35245;52.026;8.540;2023-11-22T11:41:17;6.55;;;3.50;;
49366;SDS011;35245;52.026;8.540;2023-11-22T11:43:44;5.13;;;3.17;;
49366;SDS011;35245;52.026;8.540;2023-11-22T11:46:14;7.15;;;3.58;;
49366;SDS011;35245;52.026;8.540;2023-11-22T11:48:44;7.97;;;3.33;;
49366;SDS011;35245;52.026;8.540;2023-11-22T11:51:15;7.80;;;3.40;;
49366;SDS011;35245;52.026;8.540;2023-11-22T11:53:42;5.82;;;4.00;;
49366;SDS011;35245;52.026;8.540;2023-11-22T11:56:09;4.20;;;3.00;;
49366;SDS011;35245;52.026;8.540;2023-11-22T11:58:36;5.13;;;3.13;;
49366;SDS011;35245;52.026;8.540;2023-11-22T12:01:04;6.75;;;3.60;;
49366;SDS011;35245;52.026;8.540;2023-11-22T12:03:33;3.85;;;2.42;;
49366;SDS011;35245;52.026;8.540;2023-11-22T12:06:00;6.90;;;3.25;;
49366;SDS011;35245;52.026;8.540;2023-11-22T12:08:26;4.43;;;2.63;;
49366;SDS011;35245;52.026;8.540;2023-11-22T12:10:55;4.38;;;2.72;;
49366;SDS011;35245;52.026;8.540;2023-11-22T12:13:24;4.32;;;2.88;;
49366;SDS011;35245;52.026;8.540;2023-11-22T12:15:51;6.47;;;3.78;;
49366;SDS011;35245;52.026;8.540;2023-11-22T12:18:19;5.28;;;3.13;;
49366;SDS011;35245;52.026;8.540;2023-11-22T12:20:54;5.88;;;3.15;;
49366;SDS011;35245;52.026;8.540;2023-11-22T12:23:23;4.35;;;2.28;;
49366;SDS011;35245;52.026;8.540;2023-11-22T12:25:53;4.35;;;2.42;;
49366;SDS011;35245;52.026;8.540;2023-11-22T12:28:22;3.17;;;2.40;;
49366;SDS011;35245;52.026;8.540;2023-11-22T12:30:50;6.55;;;2.95;;
49366;SDS011;35245;52.026;8.540;2023-11-22T12:33:17;6.35;;;2.85;;
49366;SDS011;35245;52.026;8.540;2023-11-22T12:35:44;6.30;;;2.72;;
49366;SDS011;35245;52.026;8.540;2023-11-22T12:38:13;4.55;;;2.20;;
49366;SDS011;35245;52.026;8.540;2023-11-22T12:40:43;5.30;;;2.70;;
49366;SDS011;35245;52.026;8.540;2023-11-22T12:43:12;6.07;;;2.33;;
49366;SDS011;35245;52.026;8.540;2023-11-22T12:45:40;5.03;;;2.58;;
49366;SDS011;35245;52.026;8.540;2023-11-22T12:48:21;3.40;;;2.50;;
49366;SDS011;35245;52.026;8.540;2023-11-22T12:50:49;3.20;;;2.35;;
49366;SDS011;35245;52.026;8.540;2023-11-22T12:53:18;4.82;;;2.10;;
49366;SDS011;35245;52.026;8.540;2023-11-22T12:55:47;3.60;;;2.25;;
49366;SDS011;35245;52.026;8.540;2023-11-22T12:58:15;3.95;;;2.30;;
49366;SDS011;35245;52.026;8.540;2023-11-22T13:00:43;5.60;;;2.85;;
49366;SDS011;35245;52.026;8.540;2023-11-22T13:03:10;4.72;;;2.85;;
49366;SDS011;35245;52.026;8.540;2023-11-22T13:05:38;5.35;;;2.80;;
49366;SDS011;35245;52.026;8.540;2023-11-22T13:08:07;4.38;;;2.40;;
49366;SDS011;35245;52.026;8.540;2023-11-22T13:10:37;4.38;;;2.80;;
49366;SDS011;35245;52.026;8.540;2023-11-22T13:13:04;7.85;;;2.85;;
49366;SDS011;35245;52.026;8.540;2023-11-22T13:15:33;4.63;;;2.65;;
49366;SDS011;35245;52.026;8.540;2023-11-22T13:18:01;4.60;;;2.60;;
49366;SDS011;35245;52.026;8.540;2023-11-22T13:20:28;3.67;;;2.40;;
49366;SDS011;35245;52.026;8.540;2023-11-22T13:22:55;4.32;;;2.40;;
49366;SDS011;35245;52.026;8.540;2023-11-22T13:25:22;4.47;;;2.20;;
49366;SDS011;35245;52.026;8.540;2023-11-22T13:27:51;5.03;;;2.33;;
49366;SDS011;35245;52.026;8.540;2023-11-22T13:30:18;5.22;;;2.15;;
49366;SDS011;35245;52.026;8.540;2023-11-22T13:32:48;3.80;;;2.13;;
49366;SDS011;35245;52.026;8.540;2023-11-22T13:35:15;4.07;;;2.30;;
49366;SDS011;35245;52.026;8.540;2023-11-22T13:37:42;4.72;;;2.58;;
49366;SDS011;35245;52.026;8.540;2023-11-22T13:40:10;5.10;;;2.65;;
49366;SDS011;35245;52.026;8.540;2023-11-22T13:42:41;4.32;;;2.47;;
49366;SDS011;35245;52.026;8.540;2023-11-22T13:45:11;6.32;;;3.22;;
49366;SDS011;35245;52.026;8.540;2023-11-22T13:47:41;4.25;;;2.70;;
49366;SDS011;35245;52.026;8.540;2023-11-22T13:50:09;5.78;;;3.30;;
49366;SDS011;35245;52.026;8.540;2023-11-22T13:52:38;5.70;;;3.22;;
49366;SDS011;35245;52.026;8.540;2023-11-22T13:55:05;7.20;;;3.67;;
49366;SDS011;35245;52.026;8.540;2023-11-22T13:57:35;8.32;;;2.97;;
49366;SDS011;35245;52.026;8.540;2023-11-22T14:00:03;8.70;;;3.35;;
49366;SDS011;35245;52.026;8.540;2023-11-22T14:02:35;4.90;;;3.40;;
49366;SDS011;35245;52.026;8.540;2023-11-22T14:05:02;8.85;;;3.50;;
49366;SDS011;35245;52.026;8.540;2023-11-22T14:07:33;6.13;;;3.60;;
49366;SDS011;35245;52.026;8.540;2023-11-22T14:10:01;6.97;;;3.80;;
49366;SDS011;35245;52.026;8.540;2023-11-22T14:12:29;7.82;;;3.95;;
49366;SDS011;35245;52.026;8.540;2023-11-22T14:14:56;8.20;;;4.55;;
49366;SDS011;35245;52.026;8.540;2023-11-22T14:17:24;10.32;;;4.85;;
49366;SDS011;35245;52.026;8.540;2023-11-22T14:19:52;7.78;;;4.97;;
49366;SDS011;35245;52.026;8.540;2023-11-22T14:22:20;7.78;;;4.35;;
49366;SDS011;35245;52.026;8.540;2023-11-22T14:24:47;8.68;;;5.22;;
49366;SDS011;35245;52.026;8.540;2023-11-22T14:27:14;8.05;;;4.85;;
49366;SDS011;35245;52.026;8.540;2023-11-22T14:29:41;10.63;;;5.47;;
49366;SDS011;35245;52.026;8.540;2023-11-22T14:32:08;9.80;;;5.40;;
49366;SDS011;35245;52.026;8.540;2023-11-22T14:34:35;10.63;;;5.88;;
49366;SDS011;35245;52.026;8.540;2023-11-22T14:37:05;9.38;;;5.43;;
49366;SDS011;35245;52.026;8.540;2023-11-22T14:39:31;12.15;;;6.82;;
49366;SDS011;35245;52.026;8.540;2023-11-22T14:41:59;9.73;;;5.00;;
49366;SDS011;35245;52.026;8.540;2023-11-22T14:44:26;11.73;;;5.72;;